OIIE/IKA METAR and TAF weather

Enter ICAO airport designator
Station Type Date Time Source
OIIE METAR 2021/09/16 11:00 UTC NOAA

OIIE 161100Z 10014KT CAVOK 36/M07 Q1010


Station Type Date Time Source
OIIE Decoded METAR 2021/09/16 11:00 UTC NOAA

Station name not available
Sep 16, 2021 - 07:00 AM EDT / 2021.09.16 1100 UTC
Wind: from the E (100 degrees) at 16 MPH (14 KT):0
Visibility: greater than 7 mile(s):0
Temperature: 96 F (36 C)
Dew Point: 19 F (-7 C)
Relative Humidity: 6%
Pressure (altimeter): 29.83 in. Hg (1010 hPa)
ob: OIIE 161100Z 10014KT CAVOK 36/M07 Q1010
cycle: 11

Station Type Date Time Source
OIIE TAF 2021/09/16 12:00 UTC NOAA

TAF OIIE 161100Z 1612/1718 12008KT CAVOK
TEMPO 1612/1618 14018KT
BECMG 1706/1708 12006KT
TEMPO 1709/1715 12016KT

Example: see airport list